Hovedside
METAR-TAF:

METAR-TAF

Lufthavner :

Björneborg lufthavn

Björneborg, Finland

breddegrad: 61-28N, lengdegrad: 021-48E, høyde over havet: 13 m

Gjeldene værobservasjon

Denne rapporten ble laget for 17 minutter siden, klokken 23:20 UTC
Vind 8 kt fra Sør-sørøst
Temperatur 10°C
Luftfuktighet 100%
Trykk 1004 hPa
Sikt 10 km eller mer
Brutte skyer i en høyde av 500 ft
Overskyet i en høyde av 2900 ft

METAR: EFPO 222320Z AUTO 16008KT 9999 BKN005 OVC029 10/10 Q1004

Tid: 02:37 (23:37 UTC)

Varsel

Denne rapporten ble laget for 9 timer og 9 minutter siden, klokken 14:28 UTC
Varsel gyldig fra 22. klokken 15 UTC til 22. klokken 18 UTC
Vind 6 kt fra Nordvest
Sikt 10 km eller mer
ingen skyer under 1500 m og ingen bygeskyer

TAF: EFPO 221428Z 2215/2218 32006KT CAVOK

Værobservasjoner og værvarsel for over 4000 flyplasser (METAR- og TAF-rapporter).

Tilgjengelige stasjoner er representert av de røde og gule prikkene på kartet.

Hold musepekeren over prikken for å se navnet på stasjonen.

Klikk så for å se værobservasjoner og -varsler.

For å forandre kartet kan du klikke på den grønne knappen med svart kryss for å zoome inn, på den grønne knappen med strek for å zoome ut, eller på de grønne pilene for å se tilstøtende kart.


METAR-TAF: